Time;durP1;ratioP1;P1;durP2;ratioP2;P2;SDS_P1;SDS_P2;PMS_P1;PMS_P2;Temp;Humidity;BMP_temperature;BMP_pressure;BME280_temperature;BME280_humidity;BME280_pressure;Samples;Min_cycle;Max_cycle;Signal;HPM_P1;HPM_P2
2022/09/02 00:01:15;;;;;;;10.82;9.95;;;;;;;20.98;68.86;94599.53;5056662;28;20182;-70
2022/09/02 00:03:42;;;;;;;10.77;9.77;;;;;;;20.99;68.97;94594.69;5055496;28;20196;-70
2022/09/02 00:06:09;;;;;;;11.55;10.40;;;;;;;20.97;68.81;94595.16;5054606;28;20230;-70
2022/09/02 00:08:36;;;;;;;10.88;9.88;;;;;;;20.97;69.05;94602.75;5054852;28;20688;-70
2022/09/02 00:11:05;;;;;;;11.57;10.25;;;;;;;20.96;68.95;94601.97;5055434;28;20548;-70
2022/09/02 00:13:33;;;;;;;11.60;10.60;;;;;;;20.95;68.76;94600.38;5055484;28;20259;-70
2022/09/02 00:16:01;;;;;;;11.98;10.77;;;;;;;20.92;68.91;94601.28;5054283;28;20201;-70
2022/09/02 00:18:29;;;;;;;12.23;10.93;;;;;;;20.86;68.83;94609.38;5055284;28;20182;-70
2022/09/02 00:20:56;;;;;;;13.43;12.02;;;;;;;20.82;68.46;94613.47;5054729;28;20210;-70
2022/09/02 00:23:23;;;;;;;11.35;10.43;;;;;;;20.80;68.67;94613.09;5054394;28;20205;-70
2022/09/02 00:25:50;;;;;;;11.82;10.73;;;;;;;20.79;68.55;94614.34;5055379;28;20190;-70
2022/09/02 00:28:17;;;;;;;12.15;11.02;;;;;;;20.79;68.25;94617.13;5055762;28;20220;-70
2022/09/02 00:30:44;;;;;;;12.18;10.93;;;;;;;20.80;67.95;94621.50;5055431;28;20198;-70
2022/09/02 00:33:11;;;;;;;12.32;11.13;;;;;;;20.78;68.23;94621.16;5054324;28;20648;-70
2022/09/02 00:35:40;;;;;;;12.10;10.95;;;;;;;20.78;68.31;94621.16;5054453;28;20193;-70
2022/09/02 00:38:07;;;;;;;12.38;11.18;;;;;;;20.79;68.11;94623.53;5054921;28;20625;-70
2022/09/02 00:40:34;;;;;;;11.48;10.27;;;;;;;20.79;68.47;94617.91;5054503;28;20198;-70
2022/09/02 00:43:01;;;;;;;11.60;10.43;;;;;;;20.82;68.50;94614.25;5054212;28;20209;-70
2022/09/02 00:45:28;;;;;;;12.25;10.95;;;;;;;20.85;68.51;94619.00;5053894;28;20233;-70
2022/09/02 00:47:55;;;;;;;11.35;10.35;;;;;;;20.87;68.93;94613.75;5054275;28;20211;-70
2022/09/02 00:50:27;;;;;;;12.57;11.10;;;;;;;20.89;68.63;94621.75;5054371;28;20220;-70
2022/09/02 00:52:59;;;;;;;12.05;10.95;;;;;;;20.88;69.01;94615.34;5054374;28;20216;-70
2022/09/02 00:55:28;;;;;;;12.10;11.00;;;;;;;20.89;69.03;94624.53;5055068;28;20190;-70
2022/09/02 00:57:59;;;;;;;12.10;11.00;;;;;;;20.88;69.21;94620.16;5055107;28;20276;-70
2022/09/02 01:00:28;;;;;;;12.13;10.90;;;;;;;20.82;69.46;94633.09;5055731;28;20193;-70
2022/09/02 01:02:57;;;;;;;12.65;11.38;;;;;;;20.82;69.11;94638.69;5055181;28;20186;-70
2022/09/02 01:05:28;;;;;;;12.00;10.88;;;;;;;20.84;68.84;94644.66;5053833;28;20243;-70
2022/09/02 01:07:57;;;;;;;12.48;11.35;;;;;;;20.81;68.78;94651.94;5054987;28;20182;-70
2022/09/02 01:10:27;;;;;;;10.98;9.98;;;;;;;20.80;68.81;94660.75;5054848;28;20186;-70
2022/09/02 01:12:55;;;;;;;10.52;9.63;;;;;;;20.76;69.68;94651.63;5054273;28;20194;-70
2022/09/02 01:15:22;;;;;;;10.63;9.70;;;;;;;20.72;69.74;94650.91;5054058;28;20528;-70
2022/09/02 01:17:50;;;;;;;10.63;9.75;;;;;;;20.72;69.40;94645.28;5087196;28;20198;-70
2022/09/02 01:20:20;;;;;;;11.15;10.15;;;;;;;20.73;69.59;94644.06;5053970;28;20213;-70
2022/09/02 01:22:49;;;;;;;10.73;9.73;;;;;;;20.70;69.74;94640.13;5054500;28;20209;-70
2022/09/02 01:25:18;;;;;;;10.80;9.80;;;;;;;20.74;69.74;94642.88;5055411;28;20209;-70
2022/09/02 01:27:46;;;;;;;11.30;10.10;;;;;;;20.78;69.84;94637.97;5057656;28;20213;-70
2022/09/02 01:30:16;;;;;;;11.70;10.60;;;;;;;20.78;69.79;94641.56;5058032;28;20200;-70
2022/09/02 01:32:43;;;;;;;12.13;11.02;;;;;;;20.80;69.81;94649.53;5058648;28;20206;-70
2022/09/02 01:35:11;;;;;;;9.75;8.75;;;;;;;20.77;69.69;94658.78;5058304;28;20534;-70
2022/09/02 01:37:38;;;;;;;9.00;8.15;;;;;;;20.70;69.88;94664.53;5058085;28;20194;-70
2022/09/02 01:40:09;;;;;;;7.00;6.30;;;;;;;20.55;70.72;94647.19;5058469;28;20190;-70
2022/09/02 01:42:36;;;;;;;6.25;5.35;;;;;;;20.39;71.89;94634.63;5058489;28;20182;-70
2022/09/02 01:45:03;;;;;;;6.90;5.75;;;;;;;20.23;72.59;94625.34;5057793;28;20201;-70
2022/09/02 01:47:31;;;;;;;6.30;5.70;;;;;;;20.05;72.98;94615.22;5057503;28;20251;-70
2022/09/02 01:49:58;;;;;;;5.38;4.88;;;;;;;20.01;74.07;94605.28;5058254;28;20193;-70
2022/09/02 01:52:28;;;;;;;6.10;5.22;;;;;;;19.96;75.67;94590.56;5058107;28;20630;-70
2022/09/02 01:54:55;;;;;;;5.95;4.80;;;;;;;19.88;77.04;94589.09;5057379;28;20194;-71
2022/09/02 01:57:26;;;;;;;6.30;4.78;;;;;;;19.86;77.70;94591.56;5058142;28;20186;-70
2022/09/02 01:59:53;;;;;;;4.78;4.38;;;;;;;19.87;77.76;94583.94;5056817;28;20215;-70
2022/09/02 02:02:21;;;;;;;4.40;4.10;;;;;;;19.87;77.01;94579.13;5057244;28;20208;-70
2022/09/02 02:04:48;;;;;;;3.92;3.63;;;;;;;19.86;75.98;94582.34;5058078;28;20496;-70
2022/09/02 02:07:18;;;;;;;3.80;3.50;;;;;;;19.85;75.46;94578.75;5056789;28;20237;-70
2022/09/02 02:09:45;;;;;;;4.53;4.15;;;;;;;19.86;75.83;94590.72;5057200;28;20198;-70
2022/09/02 02:12:11;;;;;;;3.83;3.58;;;;;;;19.81;75.98;94588.44;5056944;28;20217;-70
2022/09/02 02:14:40;;;;;;;3.90;3.60;;;;;;;19.79;76.71;94572.06;5056844;28;20205;-70
2022/09/02 02:17:07;;;;;;;3.67;3.47;;;;;;;19.75;77.13;94582.50;5057813;28;20182;-70
2022/09/02 02:19:34;;;;;;;3.80;3.50;;;;;;;19.73;76.17;94576.56;5056942;28;20208;-70
2022/09/02 02:22:01;;;;;;;4.10;3.80;;;;;;;19.69;76.18;94573.81;5056526;28;20194;-70
2022/09/02 02:24:28;;;;;;;3.67;3.47;;;;;;;19.66;75.54;94563.47;5057664;28;20194;-70
2022/09/02 02:26:55;;;;;;;3.75;3.45;;;;;;;19.62;74.93;94559.94;5056836;28;20198;-70
2022/09/02 02:29:22;;;;;;;4.30;4.00;;;;;;;19.58;74.84;94555.59;5056695;28;20206;-70
2022/09/02 02:31:50;;;;;;;4.10;3.70;;;;;;;19.56;74.96;94555.22;5056265;28;20229;-70
2022/09/02 02:34:17;;;;;;;4.05;3.75;;;;;;;19.56;74.53;94561.59;5057479;28;20201;-70
2022/09/02 02:36:44;;;;;;;3.70;2.97;;;;;;;19.55;74.82;94562.03;5056483;28;20210;-70
2022/09/02 02:39:13;;;;;;;4.05;3.75;;;;;;;19.55;75.01;94570.44;5056686;28;20200;-69
2022/09/02 02:41:41;;;;;;;3.72;3.47;;;;;;;19.57;74.89;94568.81;5056895;28;20202;-70
2022/09/02 02:44:09;;;;;;;3.90;3.63;;;;;;;19.60;74.80;94575.53;5057017;28;20193;-70
2022/09/02 02:46:36;;;;;;;5.10;3.60;;;;;;;19.59;74.10;94569.16;5057496;28;20224;-70
2022/09/02 02:49:05;;;;;;;3.85;3.55;;;;;;;19.65;74.31;94578.69;5057405;28;20201;-68
2022/09/02 02:51:32;;;;;;;5.43;4.13;;;;;;;19.66;74.99;94588.66;5057353;28;20600;-70
2022/09/02 02:53:59;;;;;;;4.10;3.80;;;;;;;19.66;74.70;94587.88;5055833;28;20550;-70
2022/09/02 02:56:27;;;;;;;4.43;4.10;;;;;;;19.70;73.98;94577.41;5056525;28;20205;-71
2022/09/02 02:58:54;;;;;;;4.90;4.50;;;;;;;19.68;74.15;94569.44;5056554;28;20284;-71
2022/09/02 03:01:21;;;;;;;4.85;4.45;;;;;;;19.68;74.41;94591.00;5057201;28;20198;-70
2022/09/02 03:03:47;;;;;;;3.95;3.75;;;;;;;19.70;74.25;94575.41;5057065;28;20201;-70
2022/09/02 03:06:15;;;;;;;5.00;4.60;;;;;;;19.70;74.47;94572.59;5056510;28;20736;-70
2022/09/02 03:08:42;;;;;;;4.55;4.25;;;;;;;19.66;76.49;94585.84;5057125;28;20187;-70
2022/09/02 03:11:09;;;;;;;5.13;4.72;;;;;;;19.64;75.46;94571.47;5056484;28;20202;-70
2022/09/02 03:13:36;;;;;;;4.63;4.22;;;;;;;19.64;75.95;94588.28;5056100;28;20543;-70
2022/09/02 03:16:04;;;;;;;5.22;4.78;;;;;;;19.67;76.11;94579.03;5055907;28;20201;-70
2022/09/02 03:18:31;;;;;;;5.85;5.35;;;;;;;19.67;76.00;94590.22;5056357;28;20224;-70
2022/09/02 03:20:58;;;;;;;5.60;5.10;;;;;;;19.67;76.40;94575.44;5055429;28;20205;-70
2022/09/02 03:23:26;;;;;;;5.95;5.45;;;;;;;19.65;76.30;94573.09;5056591;28;20192;-70
2022/09/02 03:25:54;;;;;;;5.85;5.35;;;;;;;19.65;77.31;94570.28;5055584;28;20200;-69
2022/09/02 03:28:21;;;;;;;5.93;5.43;;;;;;;19.59;78.33;94583.13;5056750;28;20206;-69
2022/09/02 03:30:48;;;;;;;5.35;4.85;;;;;;;19.58;78.47;94595.53;5055919;28;20209;-69
2022/09/02 03:33:15;;;;;;;5.35;4.95;;;;;;;19.54;78.84;94586.41;5055394;28;20217;-69
2022/09/02 03:35:43;;;;;;;5.55;5.05;;;;;;;19.52;78.97;94591.63;5056388;28;20189;-70
2022/09/02 03:38:11;;;;;;;5.78;5.28;;;;;;;19.53;78.48;94586.81;5056891;28;20179;-69
2022/09/02 03:40:40;;;;;;;5.82;5.32;;;;;;;19.51;78.40;94590.06;5057298;28;20651;-69
2022/09/02 03:43:07;;;;;;;5.60;5.10;;;;;;;19.48;78.83;94596.50;5058440;28;20194;-69
2022/09/02 03:45:34;;;;;;;5.30;4.90;;;;;;;19.48;79.29;94596.50;5057167;28;20208;-69
2022/09/02 03:48:02;;;;;;;5.85;5.45;;;;;;;19.48;79.08;94607.69;5057959;28;20205;-69
2022/09/02 03:50:31;;;;;;;5.90;5.40;;;;;;;19.45;80.40;94611.31;5059241;28;20224;-69
2022/09/02 03:52:59;;;;;;;5.75;5.25;;;;;;;19.46;80.90;94605.31;5059116;28;20201;-69
2022/09/02 03:55:26;;;;;;;5.50;5.00;;;;;;;19.44;79.82;94616.13;5058542;28;20201;-69
2022/09/02 03:57:54;;;;;;;5.53;5.13;;;;;;;19.41;79.70;94624.56;5057975;28;20190;-69
2022/09/02 04:00:23;;;;;;;6.45;5.95;;;;;;;19.37;79.83;94629.41;5059290;28;20185;-69
2022/09/02 04:02:50;;;;;;;6.25;5.72;;;;;;;19.36;79.50;94631.41;5056741;28;20209;-68
2022/09/02 04:05:17;;;;;;;6.75;6.18;;;;;;;19.37;79.04;94630.19;5054921;28;20186;-68
2022/09/02 04:07:44;;;;;;;6.43;5.90;;;;;;;19.35;79.28;94629.81;5054646;28;20630;-68
2022/09/02 04:10:11;;;;;;;6.20;5.70;;;;;;;19.34;79.69;94639.44;5054754;28;20531;-68
2022/09/02 04:12:38;;;;;;;6.80;6.20;;;;;;;19.36;80.13;94642.59;5054930;28;20214;-68
2022/09/02 04:15:09;;;;;;;7.30;6.03;;;;;;;19.36;80.00;94647.41;5055790;28;20186;-68
2022/09/02 04:17:36;;;;;;;6.43;5.90;;;;;;;19.37;79.56;94649.78;5054467;28;20197;-68
2022/09/02 04:20:03;;;;;;;6.60;6.03;;;;;;;19.35;79.62;94652.19;5055486;28;20185;-68
2022/09/02 04:22:31;;;;;;;7.40;6.80;;;;;;;19.36;79.60;94653.78;5054491;28;20197;-68
2022/09/02 04:24:58;;;;;;;7.00;6.43;;;;;;;19.35;80.12;94657.78;5055328;28;20544;-68
2022/09/02 04:27:24;;;;;;;7.88;6.72;;;;;;;19.32;80.35;94664.22;5055417;28;20635;-68
2022/09/02 04:29:51;;;;;;;7.72;6.95;;;;;;;19.32;80.14;94660.63;5055148;28;20179;-68
2022/09/02 04:32:20;;;;;;;7.10;6.60;;;;;;;19.32;80.49;94653.03;5055370;28;20210;-68
2022/09/02 04:34:47;;;;;;;7.82;7.10;;;;;;;19.33;80.66;94657.41;5055721;28;20280;-68
2022/09/02 04:37:14;;;;;;;8.00;7.30;;;;;;;19.34;80.83;94663.81;5054981;28;20205;-68
2022/09/02 04:39:41;;;;;;;8.18;7.38;;;;;;;19.33;81.00;94665.03;5054544;28;20194;-68
2022/09/02 04:42:08;;;;;;;8.52;7.38;;;;;;;19.33;80.81;94670.63;5054524;28;20201;-68
2022/09/02 04:44:35;;;;;;;8.38;7.57;;;;;;;19.33;80.80;94668.59;5054146;28;20201;-68
2022/09/02 04:47:01;;;;;;;8.32;7.63;;;;;;;19.33;80.64;94673.41;5054247;28;20201;-68
2022/09/02 04:49:31;;;;;;;8.85;8.05;;;;;;;19.31;80.44;94676.59;5054433;28;20194;-68
2022/09/02 04:51:58;;;;;;;8.88;8.10;;;;;;;19.32;80.49;94675.41;5055117;28;20206;-68
2022/09/02 04:54:25;;;;;;;9.60;8.80;;;;;;;19.32;80.86;94675.41;5055031;28;20193;-68
2022/09/02 04:56:52;;;;;;;9.93;9.02;;;;;;;19.33;81.24;94681.78;5055135;28;20196;-68
2022/09/02 04:59:20;;;;;;;9.70;8.80;;;;;;;19.35;80.35;94680.16;5054091;28;20614;-68
2022/09/02 05:01:48;;;;;;;9.23;8.40;;;;;;;19.36;80.47;94681.75;5057509;28;20239;-68
2022/09/02 05:04:15;;;;;;;10.00;9.13;;;;;;;19.35;80.45;94687.75;5058995;28;20584;-68
2022/09/02 05:06:45;;;;;;;9.55;8.65;;;;;;;19.36;80.95;94683.75;5058177;28;20240;-70
2022/09/02 05:09:12;;;;;;;10.13;9.30;;;;;;;19.35;80.74;94687.75;5058453;28;20212;-71
2022/09/02 05:11:39;;;;;;;9.70;8.90;;;;;;;19.36;80.38;94683.75;5058522;28;20526;-71
2022/09/02 05:14:07;;;;;;;9.50;8.60;;;;;;;19.36;79.90;94684.53;5059422;28;20181;-72
2022/09/02 05:16:36;;;;;;;9.73;8.82;;;;;;;19.37;80.01;94685.34;5058951;28;20606;-71
2022/09/02 05:19:04;;;;;;;9.82;9.02;;;;;;;19.37;79.79;94682.53;5059311;28;20185;-70
2022/09/02 05:21:31;;;;;;;9.13;8.32;;;;;;;19.38;80.42;94692.50;5092018;28;20193;-70
2022/09/02 05:24:00;;;;;;;9.40;8.38;;;;;;;19.39;81.35;94694.91;5057716;28;20212;-71
2022/09/02 05:26:27;;;;;;;10.13;9.23;;;;;;;19.41;80.49;94692.47;5058044;28;20208;-71
2022/09/02 05:28:53;;;;;;;10.15;9.25;;;;;;;19.40;79.91;94692.91;5058694;28;20182;-69
2022/09/02 05:31:21;;;;;;;9.50;8.63;;;;;;;19.41;79.39;94694.47;5058154;28;20201;-70
2022/09/02 05:33:48;;;;;;;10.35;9.45;;;;;;;19.41;79.57;94689.66;5058199;28;20290;-71
2022/09/02 05:36:16;;;;;;;10.38;9.35;;;;;;;19.41;79.65;94686.06;5057839;28;20202;-72
2022/09/02 05:38:44;;;;;;;10.60;9.50;;;;;;;19.44;79.87;94685.25;5058636;28;20602;-72
2022/09/02 05:41:18;;;;;;;11.05;10.10;;;;;;;19.46;79.89;94683.63;5057194;28;20649;-72
2022/09/02 05:43:45;;;;;;;9.77;8.88;;;;;;;19.50;79.93;94683.56;5058104;28;20178;-71
2022/09/02 05:46:16;;;;;;;11.18;9.57;;;;;;;19.52;79.62;94680.34;5057940;28;20225;-72
2022/09/02 05:51:28;;;;;;;9.82;8.95;;;;;;;19.56;79.28;94683.88;5058035;28;20202;-71
2022/09/02 05:53:57;;;;;;;9.35;8.50;;;;;;;19.59;79.07;94678.25;5057056;28;20287;-71
2022/09/02 05:56:26;;;;;;;8.60;7.88;;;;;;;19.61;79.07;94675.81;5058273;28;20189;-71
2022/09/02 05:58:55;;;;;;;9.48;8.48;;;;;;;19.62;78.28;94669.03;5058974;28;20213;-71
2022/09/02 06:01:22;;;;;;;9.38;8.57;;;;;;;19.63;78.19;94670.63;5057293;28;20205;-72
2022/09/02 06:03:51;;;;;;;9.00;8.10;;;;;;;19.64;78.34;94668.59;5058046;28;20205;-71
2022/09/02 06:06:19;;;;;;;9.15;8.05;;;;;;;19.63;79.20;94670.63;5057836;28;20237;-72
2022/09/02 06:08:46;;;;;;;9.10;8.13;;;;;;;19.65;78.28;94671.00;5057539;28;20206;-73
2022/09/02 06:11:13;;;;;;;8.73;7.68;;;;;;;19.65;78.56;94673.00;5057427;28;20225;-72
2022/09/02 06:13:42;;;;;;;8.05;7.28;;;;;;;19.66;77.87;94669.78;5056922;28;20222;-72
2022/09/02 06:16:12;;;;;;;7.78;6.97;;;;;;;19.67;77.99;94676.16;5057008;28;20202;-71
2022/09/02 06:18:39;;;;;;;7.53;6.82;;;;;;;19.68;77.52;94672.97;5057878;28;20189;-72
2022/09/02 06:21:06;;;;;;;7.68;7.07;;;;;;;19.70;78.23;94676.13;5057656;28;20183;-71
2022/09/02 06:23:35;;;;;;;8.23;7.43;;;;;;;19.71;78.12;94674.09;5056852;28;20193;-72
2022/09/02 06:26:01;;;;;;;8.30;7.60;;;;;;;19.74;77.53;94672.47;5090065;28;20209;-71
2022/09/02 06:28:28;;;;;;;8.95;8.05;;;;;;;19.75;77.46;94676.84;5058402;28;20197;-71
2022/09/02 06:30:56;;;;;;;8.75;7.95;;;;;;;19.78;77.90;94681.59;5056827;28;20197;-71
2022/09/02 06:33:23;;;;;;;8.77;7.97;;;;;;;19.79;78.19;94686.81;5057688;28;20225;-71
2022/09/02 06:35:50;;;;;;;8.63;7.93;;;;;;;19.82;77.88;94685.16;5056556;28;20204;-73
2022/09/02 06:38:18;;;;;;;8.18;7.38;;;;;;;19.85;77.57;94687.09;5057963;28;20189;-71
2022/09/02 06:40:49;;;;;;;8.88;7.97;;;;;;;19.87;77.38;94679.88;5056735;28;20225;-72
2022/09/02 06:43:16;;;;;;;8.88;8.07;;;;;;;19.89;78.57;94683.03;5056838;28;20205;-72
2022/09/02 06:45:44;;;;;;;9.63;8.73;;;;;;;19.90;78.75;94689.44;5056796;28;20209;-72
2022/09/02 06:48:13;;;;;;;10.88;9.20;;;;;;;19.91;78.50;94693.81;5057400;28;20201;-71
2022/09/02 06:50:41;;;;;;;9.85;8.50;;;;;;;19.93;77.91;94694.16;5057593;28;20201;-72
2022/09/02 06:53:09;;;;;;;10.13;8.10;;;;;;;19.94;77.94;94698.56;5057289;28;20210;-71
2022/09/02 06:55:36;;;;;;;9.40;8.48;;;;;;;19.97;77.45;94697.72;5056304;28;20204;-70
2022/09/02 06:58:04;;;;;;;8.93;7.97;;;;;;;19.99;78.04;94703.69;5055945;28;20194;-71
2022/09/02 07:00:31;;;;;;;8.93;7.88;;;;;;;20.01;77.74;94706.03;5056348;28;20197;-69
2022/09/02 07:05:44;;;;;;;8.20;7.50;;;;;;;20.05;77.73;94696.41;5055803;28;20237;-70
2022/09/02 07:08:11;;;;;;;7.90;7.15;;;;;;;20.08;77.52;94706.75;5055463;28;20198;-70
2022/09/02 07:10:38;;;;;;;8.05;7.25;;;;;;;20.11;76.67;94707.91;5057082;28;20189;-70
2022/09/02 07:13:05;;;;;;;8.45;7.25;;;;;;;20.12;76.94;94715.91;5056873;28;20206;-69
2022/09/02 07:15:33;;;;;;;8.15;7.45;;;;;;;20.13;76.49;94717.47;5055712;28;20204;-70
2022/09/02 07:17:59;;;;;;;8.38;7.68;;;;;;;20.15;75.98;94720.66;5056748;28;20182;-69
2022/09/02 07:20:26;;;;;;;7.50;6.82;;;;;;;20.17;75.59;94706.22;5056529;28;20194;-70
2022/09/02 07:22:55;;;;;;;7.18;6.50;;;;;;;20.20;75.48;94719.38;5056321;28;20178;-71
2022/09/02 07:25:22;;;;;;;7.07;6.43;;;;;;;20.20;74.74;94716.56;5055876;28;20193;-70
2022/09/02 07:27:50;;;;;;;7.30;6.70;;;;;;;20.22;74.81;94716.13;5056818;28;20213;-71
2022/09/02 07:30:16;;;;;;;8.27;7.10;;;;;;;20.22;74.32;94707.75;5056777;28;20194;-70
2022/09/02 07:32:43;;;;;;;7.63;6.82;;;;;;;20.22;74.70;94710.53;5055632;28;20214;-72
2022/09/02 07:35:10;;;;;;;7.40;6.70;;;;;;;20.24;74.72;94713.72;5055921;28;20201;-72
2022/09/02 07:37:37;;;;;;;7.38;6.78;;;;;;;20.26;74.87;94712.09;5056583;28;20193;-72
2022/09/02 07:40:07;;;;;;;8.10;7.15;;;;;;;20.28;74.91;94709.63;5056316;28;20178;-72
2022/09/02 07:42:34;;;;;;;7.55;6.85;;;;;;;20.29;75.41;94714.00;5055879;28;20221;-71
2022/09/02 07:45:01;;;;;;;7.45;6.80;;;;;;;20.30;74.76;94710.00;5056670;28;20182;-72
2022/09/02 07:47:28;;;;;;;7.28;6.68;;;;;;;20.30;74.51;94714.81;5055829;28;20212;-72
2022/09/02 07:49:54;;;;;;;7.55;6.85;;;;;;;20.34;74.91;94715.56;5055555;28;20190;-71
2022/09/02 07:52:21;;;;;;;7.22;6.65;;;;;;;20.35;73.83;94714.34;5055801;28;20648;-71
2022/09/02 07:54:48;;;;;;;7.65;7.03;;;;;;;20.37;74.12;94720.28;5056363;28;20186;-71
2022/09/02 07:57:16;;;;;;;7.63;7.03;;;;;;;20.39;74.27;94723.47;5055116;28;20199;-73
2022/09/02 07:59:45;;;;;;;7.60;7.00;;;;;;;20.37;73.90;94720.28;5055352;28;20205;-73
2022/09/02 08:02:11;;;;;;;10.15;7.72;;;;;;;20.37;73.10;94732.31;5055953;28;20186;-72
2022/09/02 08:04:38;;;;;;;8.90;7.85;;;;;;;20.38;73.58;94728.28;5055092;28;20205;-71
2022/09/02 08:07:05;;;;;;;10.02;8.27;;;;;;;20.40;73.39;94739.84;5054605;28;20241;-72
2022/09/02 08:09:32;;;;;;;10.70;8.25;;;;;;;20.41;73.46;94738.63;5055013;28;20194;-71
2022/09/02 08:11:59;;;;;;;9.55;7.60;;;;;;;20.43;73.52;94732.59;5055014;28;20190;-70
2022/09/02 08:14:29;;;;;;;8.52;7.72;;;;;;;20.44;73.31;94739.78;5054625;28;20216;-70
2022/09/02 08:16:56;;;;;;;8.30;7.47;;;;;;;20.45;72.94;94735.78;5055993;28;20190;-71
2022/09/02 08:19:25;;;;;;;8.20;7.40;;;;;;;20.45;72.55;94741.38;5054757;28;20208;-72
2022/09/02 08:21:52;;;;;;;8.63;7.82;;;;;;;20.44;72.38;94740.59;5055107;28;20197;-72
2022/09/02 08:24:18;;;;;;;7.45;6.75;;;;;;;20.41;72.30;94735.84;5054796;28;20198;-72
2022/09/02 08:26:45;;;;;;;7.82;7.13;;;;;;;20.44;72.43;94739.78;5056616;28;20510;-69
2022/09/02 08:29:12;;;;;;;7.95;7.25;;;;;;;20.43;72.04;94739.00;5056313;28;20629;-70
2022/09/02 08:31:40;;;;;;;8.65;7.57;;;;;;;20.43;72.57;94738.22;5056120;28;20228;-71
2022/09/02 08:34:08;;;;;;;7.80;6.85;;;;;;;20.44;72.43;94739.78;5054655;28;20217;-71
2022/09/02 08:36:34;;;;;;;7.90;7.15;;;;;;;20.43;71.90;94736.19;5055235;28;20618;-71
2022/09/02 08:39:02;;;;;;;7.95;7.18;;;;;;;20.43;72.23;94732.59;5055172;28;20190;-72
2022/09/02 08:41:34;;;;;;;8.00;7.20;;;;;;;20.43;72.23;94735.41;5054605;28;20505;-71
2022/09/02 08:44:03;;;;;;;8.15;7.32;;;;;;;20.45;72.22;94738.59;5054479;28;20205;-71
2022/09/02 08:46:32;;;;;;;7.85;7.15;;;;;;;20.49;72.60;94725.31;5054420;28;20529;-71
2022/09/02 08:49:07;;;;;;;8.35;7.20;;;;;;;20.49;72.46;94730.91;5054313;28;20201;-71
2022/09/02 08:51:37;;;;;;;7.68;6.97;;;;;;;20.50;71.98;94732.50;5055310;28;20192;-71
2022/09/02 08:54:06;;;;;;;8.10;7.40;;;;;;;20.53;71.70;94728.88;5055279;28;20216;-71
2022/09/02 08:56:33;;;;;;;7.65;7.05;;;;;;;20.57;72.40;94731.63;5054564;28;20216;-71
2022/09/02 08:59:02;;;;;;;230.82;153.40;;;;;;;20.59;71.68;94720.78;5054668;28;20205;-72
2022/09/02 09:01:35;;;;;;;17.15;13.88;;;;;;;20.61;72.33;94718.34;5055426;28;20189;-72
2022/09/02 09:04:22;;;;;;;8.98;8.20;;;;;;;20.60;72.13;94714.75;5054330;28;20183;-72
2022/09/02 09:06:59;;;;;;;9.20;8.30;;;;;;;20.61;72.73;94709.94;5053448;28;20229;-70
2022/09/02 09:09:33;;;;;;;8.40;7.70;;;;;;;20.61;72.68;94718.34;5055152;28;20194;-71
2022/09/02 09:12:07;;;;;;;9.63;8.27;;;;;;;20.60;72.18;94719.56;5054848;28;20197;-71
2022/09/02 09:14:40;;;;;;;7.97;7.28;;;;;;;20.61;72.21;94719.13;5054553;28;20628;-71
2022/09/02 09:17:11;;;;;;;9.32;8.25;;;;;;;20.64;73.06;94714.69;5054663;28;20189;-71
2022/09/02 09:19:48;;;;;;;9.63;8.45;;;;;;;20.66;73.32;94712.22;5054115;28;20186;-71
2022/09/02 09:22:19;;;;;;;8.85;7.95;;;;;;;20.66;72.97;94715.84;5054105;28;20205;-70
2022/09/02 09:24:47;;;;;;;8.98;8.07;;;;;;;20.66;72.73;94717.84;5053589;28;20193;-70
2022/09/02 09:27:16;;;;;;;8.60;7.45;;;;;;;20.66;71.75;94707.44;5054982;28;20197;-70
2022/09/02 09:29:43;;;;;;;8.18;7.38;;;;;;;20.67;72.09;94711.03;5054891;28;20193;-70
2022/09/02 09:32:18;;;;;;;9.07;7.88;;;;;;;20.70;72.57;94715.78;5054637;28;20190;-72
2022/09/02 09:35:00;;;;;;;8.88;8.07;;;;;;;20.72;72.30;94704.13;5054911;28;20197;-70
2022/09/02 09:37:33;;;;;;;9.23;8.27;;;;;;;20.74;72.79;94704.50;5054061;28;20194;-70
2022/09/02 09:39:59;;;;;;;9.45;8.45;;;;;;;20.79;72.70;94699.19;5053552;28;20205;-71
2022/09/02 09:42:32;;;;;;;10.35;8.98;;;;;;;20.84;73.46;94700.69;5053913;28;20198;-71
2022/09/02 09:44:59;;;;;;;11.18;9.10;;;;;;;20.87;73.06;94705.47;5055053;28;20178;-72
2022/09/02 09:47:26;;;;;;;10.75;9.65;;;;;;;20.88;73.76;94705.03;5056188;28;20196;-72
2022/09/02 09:50:10;;;;;;;11.57;9.88;;;;;;;20.87;73.89;94703.44;5058404;28;20198;-71
2022/09/02 09:52:37;;;;;;;10.98;9.98;;;;;;;20.88;73.75;94702.25;5058108;28;20182;-72
2022/09/02 09:55:11;;;;;;;11.77;10.75;;;;;;;20.90;73.85;94704.59;5057445;28;20210;-72
2022/09/02 09:57:39;;;;;;;11.85;10.65;;;;;;;20.92;74.00;94699.38;5058300;28;20213;-68
2022/09/02 10:00:13;;;;;;;12.93;11.63;;;;;;;20.94;73.85;94704.53;5056974;28;20625;-70
2022/09/02 10:02:47;;;;;;;12.40;11.23;;;;;;;20.97;73.39;94700.88;5057417;28;20193;-70
2022/09/02 10:05:27;;;;;;;11.05;9.98;;;;;;;21.01;73.48;94705.19;5057868;28;20179;-70
2022/09/02 10:07:55;;;;;;;11.32;10.30;;;;;;;21.02;72.81;94701.16;5056776;28;20229;-70
2022/09/02 10:10:24;;;;;;;10.45;9.40;;;;;;;21.00;72.47;94705.63;5057438;28;20201;-70
2022/09/02 10:12:53;;;;;;;11.77;10.57;;;;;;;20.98;72.46;94703.25;5056792;28;20209;-70
2022/09/02 10:15:27;;;;;;;11.43;10.32;;;;;;;20.98;72.49;94703.25;5057919;28;20210;-70
2022/09/02 10:18:00;;;;;;;11.75;10.50;;;;;;;20.98;72.53;94694.84;5057597;28;20601;-70
2022/09/02 10:20:40;;;;;;;11.68;10.57;;;;;;;21.00;73.24;94700.03;5057600;28;20190;-71
2022/09/02 10:23:14;;;;;;;11.18;10.15;;;;;;;21.03;73.41;94691.56;5057310;28;20632;-67
2022/09/02 10:25:52;;;;;;;12.43;11.27;;;;;;;21.08;73.25;94695.84;5057651;28;20209;-67
2022/09/02 10:28:29;;;;;;;12.27;11.15;;;;;;;21.10;72.48;94705.44;5057730;28;20597;-67
2022/09/02 10:31:05;;;;;;;11.60;10.60;;;;;;;21.09;71.78;94706.63;5057217;28;20204;-66
2022/09/02 10:33:44;;;;;;;11.48;10.38;;;;;;;21.11;72.35;94709.03;5057567;28;20272;-72
2022/09/02 10:36:17;;;;;;;11.43;10.30;;;;;;;21.12;72.06;94705.78;5057766;28;20197;-71
2022/09/02 10:38:45;;;;;;;11.73;10.55;;;;;;;21.14;72.44;94697.75;5056512;28;20301;-71
2022/09/02 10:41:32;;;;;;;10.85;9.73;;;;;;;21.16;72.19;94703.69;5056759;28;20206;-71
2022/09/02 10:44:17;;;;;;;10.50;9.60;;;;;;;21.20;72.10;94702.84;5057097;28;20190;-71
2022/09/02 10:46:51;;;;;;;10.52;9.43;;;;;;;21.23;72.79;94697.16;5057003;28;20204;-71
2022/09/02 10:49:23;;;;;;;11.30;10.30;;;;;;;21.29;72.45;94695.44;5057022;28;20185;-71
2022/09/02 10:51:57;;;;;;;10.73;9.80;;;;;;;21.31;72.00;94697.81;5057313;28;20204;-71
2022/09/02 10:54:38;;;;;;;12.02;10.45;;;;;;;21.37;71.84;94691.28;5056838;28;20555;-71
2022/09/02 10:57:09;;;;;;;11.95;10.77;;;;;;;21.47;72.07;94692.31;5057002;28;20212;-72
2022/09/02 10:59:40;;;;;;;11.38;10.27;;;;;;;21.59;71.45;94693.66;5055024;28;20186;-73
2022/09/02 11:02:11;;;;;;;10.63;9.73;;;;;;;21.72;71.40;94694.59;5057238;28;20197;-72
2022/09/02 11:04:42;;;;;;;13.52;11.55;;;;;;;21.83;71.19;94685.94;5055874;28;20194;-73
2022/09/02 11:07:15;;;;;;;12.63;11.27;;;;;;;21.93;71.12;94684.88;5056084;28;20237;-73
2022/09/02 11:09:44;;;;;;;11.85;10.75;;;;;;;22.04;70.67;94681.81;5055721;28;20206;-73
2022/09/02 11:12:16;;;;;;;13.57;12.38;;;;;;;22.11;70.14;94676.84;5055819;28;20202;-73
2022/09/02 11:14:52;;;;;;;12.30;11.13;;;;;;;22.17;70.00;94674.31;5056810;28;20201;-73
2022/09/02 11:17:24;;;;;;;12.20;10.95;;;;;;;22.24;70.06;94676.19;5056124;28;20197;-73
2022/09/02 11:19:55;;;;;;;14.25;12.90;;;;;;;22.29;69.41;94679.22;5055661;28;20209;-71
2022/09/02 11:22:28;;;;;;;12.25;11.02;;;;;;;22.28;68.57;94677.66;5055945;28;20202;-71
2022/09/02 11:24:59;;;;;;;14.38;12.88;;;;;;;22.24;68.06;94670.56;5056710;28;20186;-73
2022/09/02 11:27:32;;;;;;;16.48;14.88;;;;;;;22.22;68.46;94671.00;5056943;28;20202;-72
2022/09/02 11:30:04;;;;;;;13.65;12.07;;;;;;;22.22;68.95;94673.81;5055928;28;20197;-70
2022/09/02 11:32:36;;;;;;;11.13;10.07;;;;;;;22.23;68.57;94671.78;5055266;28;20206;-69
2022/09/02 11:35:08;;;;;;;13.45;12.07;;;;;;;22.23;67.97;94669.00;5055433;28;20225;-72
2022/09/02 11:37:40;;;;;;;13.70;12.30;;;;;;;22.23;68.52;94672.59;5055922;28;20201;-73
2022/09/02 11:40:11;;;;;;;12.93;11.57;;;;;;;22.25;68.43;94660.91;5055571;28;20206;-73
2022/09/02 11:42:49;;;;;;;12.50;11.30;;;;;;;22.27;68.66;94664.84;5056422;28;20200;-72